Time;durP1;ratioP1;P1;durP2;ratioP2;P2;SDS_P1;SDS_P2;PMS_P1;PMS_P2;Temp;Humidity;BMP_temperature;BMP_pressure;BME280_temperature;BME280_humidity;BME280_pressure;Samples;Min_cycle;Max_cycle;Signal;HPM_P1;HPM_P2
2022/09/02 00:00:41;;;;;;;7.30;2.97;;;;;;;17.34;86.15;98593.84;5114330;28;20848;-93
2022/09/02 00:03:08;;;;;;;6.35;2.58;;;;;;;17.33;84.92;98593.97;5114572;28;20032;-95
2022/09/02 00:05:34;;;;;;;6.47;2.45;;;;;;;17.28;85.90;98588.81;5116119;28;20043;-93
2022/09/02 00:08:00;;;;;;;3.17;2.40;;;;;;;17.27;85.48;98603.22;5116298;28;20036;-93
2022/09/02 00:10:26;;;;;;;5.55;2.45;;;;;;;17.31;84.94;98603.94;5114734;28;20085;-93
2022/09/02 00:12:52;;;;;;;5.07;2.60;;;;;;;17.34;85.94;98603.75;5113985;28;20039;-93
2022/09/02 00:15:18;;;;;;;4.35;2.30;;;;;;;17.22;84.40;98579.31;5114280;28;20080;-92
2022/09/02 00:17:44;;;;;;;3.50;2.38;;;;;;;17.20;84.98;98588.41;5115039;28;20047;-94
2022/09/02 00:20:12;;;;;;;4.90;2.30;;;;;;;17.22;82.60;98595.44;5115686;28;20052;-94
2022/09/02 00:22:38;;;;;;;3.83;2.40;;;;;;;17.23;82.85;98589.09;5114970;28;20036;-94
2022/09/02 00:25:05;;;;;;;4.47;2.15;;;;;;;17.38;81.58;98599.91;5115091;28;20042;-94
2022/09/02 00:27:31;;;;;;;2.88;2.00;;;;;;;17.38;81.87;98611.53;5115056;28;20419;-93
2022/09/02 00:29:57;;;;;;;3.67;2.30;;;;;;;17.37;82.17;98611.63;5115002;28;20093;-92
2022/09/02 00:32:22;;;;;;;3.78;2.20;;;;;;;17.23;83.12;98598.97;5113223;28;20073;-93
2022/09/02 00:34:48;;;;;;;3.03;2.10;;;;;;;17.17;83.76;98591.25;5113750;28;20039;-93
2022/09/02 00:37:16;;;;;;;5.95;2.38;;;;;;;17.19;84.43;98597.41;5113597;28;20074;-94
2022/09/02 00:39:42;;;;;;;5.82;2.40;;;;;;;17.04;85.47;98586.59;5113158;28;20051;-93
2022/09/02 00:42:08;;;;;;;3.80;2.30;;;;;;;17.06;84.60;98594.56;5113326;28;20123;-94
2022/09/02 00:44:34;;;;;;;4.88;2.50;;;;;;;17.03;86.18;98595.59;5113774;28;20412;-92
2022/09/02 00:47:00;;;;;;;4.45;2.50;;;;;;;17.10;83.61;98595.25;5114466;28;20043;-93
2022/09/02 00:49:29;;;;;;;4.85;2.35;;;;;;;17.09;83.50;98593.50;5113141;28;20378;-95
2022/09/02 00:52:00;;;;;;;4.35;2.40;;;;;;;17.11;83.23;98578.16;5114366;28;20054;-93
2022/09/02 00:54:31;;;;;;;5.05;2.53;;;;;;;17.09;83.07;98577.38;5113126;28;20393;-93
2022/09/02 00:56:59;;;;;;;3.95;2.50;;;;;;;17.03;83.11;98566.03;5114118;28;20101;-94
2022/09/02 00:59:34;;;;;;;4.40;2.30;;;;;;;17.12;82.64;98586.16;5113526;28;20031;-94
2022/09/02 01:01:59;;;;;;;7.40;2.55;;;;;;;17.04;82.61;98566.91;5115818;28;20046;-94
2022/09/02 01:04:26;;;;;;;4.03;2.30;;;;;;;17.03;82.92;98568.72;5116912;28;20035;-94
2022/09/02 01:06:52;;;;;;;3.55;2.28;;;;;;;17.14;83.89;98591.44;5116186;28;20119;-93
2022/09/02 01:09:18;;;;;;;5.82;2.60;;;;;;;17.12;83.54;98585.28;5114936;28;20031;-93
2022/09/02 01:11:51;;;;;;;4.88;2.55;;;;;;;17.09;83.95;98586.34;5114497;28;20032;-95
2022/09/02 01:14:17;;;;;;;6.18;2.45;;;;;;;16.95;84.33;98572.81;5111768;28;20050;-93
2022/09/02 01:16:45;;;;;;;3.70;2.45;;;;;;;16.96;84.81;98587.97;5113353;28;20036;-93
2022/09/02 01:19:18;;;;;;;4.97;2.58;;;;;;;16.85;85.35;98580.53;5113708;28;20040;-93
2022/09/02 01:21:47;;;;;;;3.75;2.45;;;;;;;16.82;85.70;98591.41;5113545;28;20039;-94
2022/09/02 01:24:14;;;;;;;4.75;2.80;;;;;;;16.76;86.25;98584.56;5113021;28;20055;-93
2022/09/02 01:26:40;;;;;;;6.05;2.67;;;;;;;16.84;86.18;98602.94;5115272;28;20046;-93
2022/09/02 01:29:06;;;;;;;4.03;2.53;;;;;;;16.77;88.19;98599.69;5117503;28;20047;-93
2022/09/02 01:31:31;;;;;;;8.80;3.13;;;;;;;16.58;89.80;98593.59;5116986;28;20077;-94
2022/09/02 01:33:58;;;;;;;6.55;3.00;;;;;;;16.48;91.17;98597.72;5117310;28;20032;-92
2022/09/02 01:36:25;;;;;;;4.65;3.00;;;;;;;16.43;91.22;98611.41;5117150;28;20048;-94
2022/09/02 01:38:53;;;;;;;8.55;3.00;;;;;;;16.38;88.11;98589.31;5117106;28;20089;-94
2022/09/02 01:41:19;;;;;;;5.15;2.80;;;;;;;16.45;88.24;98595.22;5116523;28;20113;-93
2022/09/02 01:43:45;;;;;;;4.93;2.90;;;;;;;16.50;88.70;98594.00;5116968;28;20071;-94
2022/09/02 01:46:10;;;;;;;5.90;3.20;;;;;;;16.57;86.27;98600.78;5116887;28;20036;-93
2022/09/02 01:48:36;;;;;;;6.13;2.80;;;;;;;16.58;84.88;98594.47;5117251;28;20032;-93
2022/09/02 01:51:03;;;;;;;7.85;3.33;;;;;;;16.76;83.87;98599.78;5117072;28;20032;-94
2022/09/02 01:53:30;;;;;;;6.25;2.78;;;;;;;16.84;84.09;98603.81;5117237;28;20126;-93
2022/09/02 01:55:58;;;;;;;4.80;3.00;;;;;;;16.81;82.84;98589.69;5116601;28;20584;-93
2022/09/02 01:58:24;;;;;;;4.35;2.88;;;;;;;17.06;82.84;98612.50;5117337;28;20044;-93
2022/09/02 02:00:50;;;;;;;4.40;3.10;;;;;;;16.98;81.80;98586.94;5116808;28;20143;-94
2022/09/02 02:03:16;;;;;;;8.68;3.60;;;;;;;17.04;81.35;98593.78;5116648;28;20392;-94
2022/09/02 02:05:42;;;;;;;5.22;3.03;;;;;;;17.08;81.06;98587.28;5118437;28;20131;-93
2022/09/02 02:08:08;;;;;;;5.85;3.15;;;;;;;17.04;80.98;98585.72;5116162;28;20070;-95
2022/09/02 02:10:35;;;;;;;6.85;3.03;;;;;;;17.03;81.66;98589.38;5116909;28;20050;-94
2022/09/02 02:13:02;;;;;;;4.53;3.00;;;;;;;17.04;82.24;98597.34;5116488;28;20039;-95
2022/09/02 02:15:29;;;;;;;5.55;3.30;;;;;;;16.94;82.19;98589.88;5117727;28;20040;-94
2022/09/02 02:17:54;;;;;;;5.50;3.00;;;;;;;16.93;83.13;98613.16;5117662;28;20066;-95
2022/09/02 02:20:21;;;;;;;5.75;3.00;;;;;;;16.85;83.80;98604.69;5117820;28;20492;-94
2022/09/02 02:22:47;;;;;;;5.82;3.15;;;;;;;16.81;84.14;98606.66;5117951;28;20047;-94
2022/09/02 02:25:14;;;;;;;4.90;2.97;;;;;;;16.82;84.14;98613.75;5117675;28;20392;-93
2022/09/02 02:27:40;;;;;;;9.35;3.28;;;;;;;16.64;85.40;98591.44;5117532;28;20048;-93
2022/09/02 02:30:09;;;;;;;5.03;2.75;;;;;;;16.66;85.16;98603.94;5116672;28;20092;-92
2022/09/02 02:32:35;;;;;;;5.13;3.40;;;;;;;16.73;85.87;98618.75;5116655;28;20052;-94
2022/09/02 02:35:02;;;;;;;8.45;3.05;;;;;;;16.69;85.45;98617.19;5116929;28;20048;-90
2022/09/02 02:37:28;;;;;;;8.02;3.33;;;;;;;16.64;86.37;98633.53;5116452;28;20645;-93
2022/09/02 02:39:55;;;;;;;6.93;3.22;;;;;;;16.46;87.30;98607.69;5117356;28;20449;-93
2022/09/02 02:42:21;;;;;;;5.50;3.42;;;;;;;16.57;87.85;98621.41;5117216;28;20063;-95
2022/09/02 02:44:47;;;;;;;7.57;3.47;;;;;;;16.42;88.23;98613.22;5116009;28;20078;-93
2022/09/02 02:47:15;;;;;;;6.03;3.40;;;;;;;16.30;88.89;98600.44;5116198;28;20036;-95
2022/09/02 02:49:42;;;;;;;6.25;3.63;;;;;;;16.30;89.04;98602.28;5115838;28;20039;-94
2022/09/02 02:52:09;;;;;;;5.93;3.60;;;;;;;16.38;88.52;98605.41;5117298;28;20043;-93
2022/09/02 02:54:35;;;;;;;6.70;3.83;;;;;;;16.25;88.33;98589.09;5117591;28;20031;-92
2022/09/02 02:57:03;;;;;;;6.88;3.45;;;;;;;16.37;88.24;98600.97;5117723;28;20401;-93
2022/09/02 02:59:29;;;;;;;5.95;3.25;;;;;;;16.22;88.53;98578.50;5117003;28;20124;-92
2022/09/02 03:01:55;;;;;;;5.25;3.60;;;;;;;16.27;88.41;98586.34;5116242;28;20493;-95
2022/09/02 03:04:23;;;;;;;5.38;3.42;;;;;;;16.32;88.69;98597.69;5117388;28;20039;-94
2022/09/02 03:06:50;;;;;;;4.70;3.58;;;;;;;16.28;88.73;98588.06;5115072;28;20043;-92
2022/09/02 03:09:15;;;;;;;6.55;3.17;;;;;;;16.22;89.10;98587.47;5116471;28;20036;-94
2022/09/02 03:11:41;;;;;;;6.72;3.70;;;;;;;16.14;89.38;98572.72;5116602;28;20119;-95
2022/09/02 03:14:07;;;;;;;8.93;3.42;;;;;;;16.09;89.04;98562.22;5115231;28;20035;-93
2022/09/02 03:16:34;;;;;;;6.88;3.47;;;;;;;16.16;89.72;98577.03;5115086;28;20459;-93
2022/09/02 03:19:00;;;;;;;6.85;3.70;;;;;;;16.05;89.12;98563.34;5115588;28;20130;-94
2022/09/02 03:21:27;;;;;;;7.47;3.22;;;;;;;16.17;89.42;98573.41;5115509;28;20620;-92
2022/09/02 03:23:54;;;;;;;7.18;3.38;;;;;;;16.12;89.82;98575.47;5112751;28;20032;-93
2022/09/02 03:26:22;;;;;;;8.30;3.95;;;;;;;16.12;89.97;98574.59;5116522;28;20036;-92
2022/09/02 03:28:48;;;;;;;5.63;3.63;;;;;;;16.09;90.25;98562.22;5115168;28;20155;-94
2022/09/02 03:31:17;;;;;;;5.60;3.58;;;;;;;16.10;90.15;98566.63;5116447;27;20067;-93
2022/09/02 03:33:43;;;;;;;7.82;3.97;;;;;;;16.09;89.88;98564.91;5115770;28;20045;-93
2022/09/02 03:36:18;;;;;;;9.60;3.92;;;;;;;16.09;89.57;98562.22;5115808;28;20050;-92
2022/09/02 03:38:45;;;;;;;6.78;3.85;;;;;;;16.15;89.89;98586.03;5115825;27;20039;-93
2022/09/02 03:41:11;;;;;;;8.70;3.50;;;;;;;16.02;89.89;98556.28;5116230;28;20052;-92
2022/09/02 03:43:37;;;;;;;4.82;3.85;;;;;;;16.09;89.62;98569.38;5116287;28;20050;-93
2022/09/02 03:46:04;;;;;;;8.13;4.00;;;;;;;16.04;89.67;98560.72;5114226;28;20511;-92
2022/09/02 03:48:30;;;;;;;7.45;4.32;;;;;;;16.11;89.35;98572.84;5115791;28;20047;-92
2022/09/02 03:50:56;;;;;;;5.60;3.72;;;;;;;16.10;89.66;98572.00;5115939;28;20054;-93
2022/09/02 03:53:22;;;;;;;7.63;3.58;;;;;;;16.15;89.12;98572.59;5118004;27;20039;-93
2022/09/02 03:55:49;;;;;;;6.60;3.65;;;;;;;15.95;89.40;98540.63;5116902;28;20481;-92
2022/09/02 03:58:16;;;;;;;6.82;3.80;;;;;;;15.99;89.61;98548.41;5115312;28;20050;-93
2022/09/02 04:00:42;;;;;;;5.68;4.28;;;;;;;16.01;89.70;98553.72;5114252;27;20481;-93
2022/09/02 04:03:08;;;;;;;5.28;3.90;;;;;;;16.04;89.12;98556.22;5115725;28;20050;-92
2022/09/02 04:05:35;;;;;;;6.82;4.30;;;;;;;15.94;89.10;98541.56;5114564;28;20035;-94
2022/09/02 04:08:01;;;;;;;8.32;4.03;;;;;;;16.03;89.42;98567.91;5114277;28;20039;-94
2022/09/02 04:10:27;;;;;;;6.95;4.05;;;;;;;16.00;88.77;98554.66;5115177;28;20039;-93
2022/09/02 04:12:54;;;;;;;8.93;4.40;;;;;;;16.17;87.26;98551.94;5116760;28;20042;-92
2022/09/02 04:15:20;;;;;;;7.18;4.82;;;;;;;16.13;87.12;98544.13;5115906;28;20044;-94
2022/09/02 04:17:46;;;;;;;7.88;3.92;;;;;;;16.20;87.04;98551.78;5114571;28;20032;-91
2022/09/02 04:20:13;;;;;;;6.93;4.43;;;;;;;16.20;86.39;98550.94;5115069;28;20096;-92
2022/09/02 04:22:39;;;;;;;7.25;4.30;;;;;;;16.37;86.34;98561.63;5116485;28;20035;-94
2022/09/02 04:25:06;;;;;;;7.18;4.70;;;;;;;16.36;85.99;98569.75;5115395;28;20484;-94
2022/09/02 04:27:34;;;;;;;6.88;4.30;;;;;;;16.28;86.14;98555.88;5115638;28;20047;-93
2022/09/02 04:30:01;;;;;;;6.20;4.32;;;;;;;16.39;84.94;98565.09;5115659;28;20494;-94
2022/09/02 04:32:27;;;;;;;11.90;4.95;;;;;;;16.51;84.98;98568.91;5116078;28;20043;-94
2022/09/02 04:34:53;;;;;;;5.25;4.07;;;;;;;16.45;84.44;98553.13;5116168;28;20115;-92
2022/09/02 04:37:19;;;;;;;6.00;3.95;;;;;;;16.53;83.20;98548.22;5115506;28;20221;-93
2022/09/02 04:39:45;;;;;;;6.75;4.30;;;;;;;16.60;82.33;98549.59;5117171;28;20151;-93
2022/09/02 04:42:10;;;;;;;7.70;4.38;;;;;;;16.63;82.74;98560.19;5115217;28;20052;-94
2022/09/02 04:44:36;;;;;;;8.55;4.32;;;;;;;16.49;85.48;98554.72;5115190;28;20039;-94
2022/09/02 04:47:04;;;;;;;6.63;4.05;;;;;;;16.41;84.63;98543.50;5114034;28;20063;-91
2022/09/02 04:49:31;;;;;;;7.57;4.45;;;;;;;16.60;83.47;98564.84;5115407;28;20139;-93
2022/09/02 04:51:57;;;;;;;7.90;4.53;;;;;;;16.58;82.55;98539.91;5116046;28;20366;-95
2022/09/02 04:54:23;;;;;;;6.38;4.57;;;;;;;16.67;82.27;98546.59;5113627;28;20035;-93
2022/09/02 04:56:49;;;;;;;5.57;4.18;;;;;;;16.77;81.98;98556.72;5116442;28;20097;-92
2022/09/02 04:59:15;;;;;;;9.43;4.70;;;;;;;16.75;81.84;98553.28;5116913;28;20074;-93
2022/09/02 05:01:41;;;;;;;7.22;4.55;;;;;;;16.71;81.31;98550.84;5115879;28;20032;-92
2022/09/02 05:04:08;;;;;;;8.75;4.10;;;;;;;16.91;81.10;98564.03;5121186;28;20126;-93
2022/09/02 05:06:35;;;;;;;6.88;4.55;;;;;;;16.89;80.97;98570.47;5119706;28;20043;-93
2022/09/02 05:09:03;;;;;;;7.50;4.25;;;;;;;16.76;81.12;98554.13;5119417;28;20045;-95
2022/09/02 05:11:30;;;;;;;7.30;4.63;;;;;;;16.80;81.08;98563.78;5119149;28;20074;-92
2022/09/02 05:13:58;;;;;;;7.10;4.63;;;;;;;16.89;81.82;98563.25;5118902;28;20122;-93
2022/09/02 05:16:27;;;;;;;9.55;4.88;;;;;;;16.79;83.70;98553.97;5115874;28;20042;-92
2022/09/02 05:18:53;;;;;;;8.40;4.50;;;;;;;16.72;84.60;98574.03;5119161;28;20154;-94
2022/09/02 05:21:22;;;;;;;7.65;4.75;;;;;;;16.75;82.24;98580.13;5118513;28;20099;-93
2022/09/02 05:23:47;;;;;;;10.85;4.70;;;;;;;16.87;80.99;98581.28;5118906;28;20036;-94
2022/09/02 05:26:13;;;;;;;8.10;4.68;;;;;;;16.93;81.88;98585.44;5117552;28;20036;-95
2022/09/02 05:28:41;;;;;;;10.18;4.20;;;;;;;16.98;80.72;98584.25;5118504;28;20151;-94
2022/09/02 05:31:09;;;;;;;8.88;4.85;;;;;;;17.10;80.17;98595.25;5118640;28;20043;-94
2022/09/02 05:33:37;;;;;;;7.38;4.72;;;;;;;17.18;80.23;98595.69;5118811;28;20107;-93
2022/09/02 05:36:04;;;;;;;7.47;4.63;;;;;;;17.07;81.34;98593.63;5118874;28;20133;-93
2022/09/02 05:38:31;;;;;;;8.55;4.85;;;;;;;17.09;81.66;98596.19;5119071;28;20100;-93
2022/09/02 05:40:58;;;;;;;7.72;5.00;;;;;;;17.12;82.69;98609.47;5118471;28;20047;-94
2022/09/02 05:43:24;;;;;;;7.75;4.28;;;;;;;17.06;82.51;98615.19;5118286;28;20036;-93
2022/09/02 05:45:50;;;;;;;7.95;4.90;;;;;;;17.18;79.67;98620.75;5118686;28;20043;-93
2022/09/02 05:51:15;;;;;;;6.18;4.53;;;;;;;17.49;79.93;98640.50;5133395;27;20382;-94
2022/09/02 05:53:41;;;;;;;9.23;4.88;;;;;;;17.63;81.03;98645.06;5132699;28;20040;-94
2022/09/02 05:56:07;;;;;;;8.65;4.53;;;;;;;17.68;80.51;98644.81;5131688;28;20092;-93
2022/09/02 05:58:33;;;;;;;7.63;4.82;;;;;;;17.66;77.76;98620.69;5131684;28;20047;-93
2022/09/02 06:00:59;;;;;;;8.82;4.43;;;;;;;17.93;76.42;98638.88;5132897;27;20044;-93
2022/09/02 06:03:24;;;;;;;10.18;4.63;;;;;;;18.01;78.50;98632.09;5132932;28;20152;-92
2022/09/02 06:05:54;;;;;;;8.48;4.57;;;;;;;18.14;74.46;98628.66;5132255;28;20070;-90
2022/09/02 06:08:21;;;;;;;7.00;4.75;;;;;;;18.25;74.66;98605.50;5130949;28;20070;-93
2022/09/02 06:10:47;;;;;;;7.15;4.38;;;;;;;18.45;74.48;98614.19;5132767;27;20123;-92
2022/09/02 06:13:14;;;;;;;8.90;4.80;;;;;;;18.61;74.08;98617.69;5132774;28;20059;-92
2022/09/02 06:15:42;;;;;;;6.25;4.35;;;;;;;18.71;75.13;98601.78;5134731;27;20043;-94
2022/09/02 06:18:08;;;;;;;9.10;4.60;;;;;;;18.97;73.99;98608.25;5131438;28;20039;-93
2022/09/02 06:20:38;;;;;;;8.32;4.55;;;;;;;19.27;73.92;98623.41;5131677;27;20057;-92
2022/09/02 06:23:04;;;;;;;6.60;4.60;;;;;;;19.38;73.42;98628.13;5131602;28;20048;-93
2022/09/02 06:25:31;;;;;;;7.97;4.38;;;;;;;19.56;72.71;98629.63;5133903;28;20068;-93
2022/09/02 06:27:57;;;;;;;6.95;4.35;;;;;;;19.57;72.68;98617.00;5132702;28;20044;-95
2022/09/02 06:30:23;;;;;;;6.22;4.03;;;;;;;19.70;71.99;98612.53;5131514;28;20043;-93
2022/09/02 06:32:49;;;;;;;7.63;4.30;;;;;;;19.86;71.78;98632.13;5131046;28;20039;-93
2022/09/02 06:35:14;;;;;;;6.68;4.28;;;;;;;20.00;71.97;98625.78;5131250;28;20054;-93
2022/09/02 06:37:40;;;;;;;10.73;5.05;;;;;;;20.17;71.12;98640.84;5131834;28;20096;-95
2022/09/02 06:40:07;;;;;;;7.78;4.65;;;;;;;20.36;70.59;98647.66;5131409;28;20456;-91
2022/09/02 06:42:34;;;;;;;7.10;4.50;;;;;;;20.17;67.81;98621.94;5130981;28;20047;-94
2022/09/02 06:45:00;;;;;;;8.52;4.72;;;;;;;20.11;66.72;98616.97;5125668;28;20079;-93
2022/09/02 06:47:26;;;;;;;6.50;4.40;;;;;;;19.87;68.79;98623.06;5131463;28;20059;-94
2022/09/02 06:49:52;;;;;;;5.20;4.20;;;;;;;20.13;69.70;98617.72;5130367;28;20038;-93
2022/09/02 06:52:18;;;;;;;9.23;5.13;;;;;;;20.06;68.93;98606.47;5130649;28;20069;-93
2022/09/02 06:54:44;;;;;;;7.50;4.53;;;;;;;20.25;69.06;98614.16;5132822;27;20465;-95
2022/09/02 06:57:10;;;;;;;9.63;4.85;;;;;;;20.37;69.17;98598.09;5132390;28;20047;-94
2022/09/02 06:59:37;;;;;;;8.68;5.13;;;;;;;20.58;67.03;98602.03;5132629;28;20128;-95
2022/09/02 07:02:03;;;;;;;7.88;4.90;;;;;;;20.52;67.62;98624.03;5119692;28;20039;-93
2022/09/02 07:07:28;;;;;;;5.78;4.57;;;;;;;20.29;67.61;98634.56;5134096;27;20371;-94
2022/09/02 07:09:54;;;;;;;12.02;5.07;;;;;;;20.17;68.54;98621.06;5135510;27;20035;-94
2022/09/02 07:12:20;;;;;;;6.50;4.70;;;;;;;19.86;67.49;98606.97;5139603;27;20045;-93
2022/09/02 07:14:46;;;;;;;7.30;4.75;;;;;;;19.81;67.11;98607.28;5133575;27;20039;-94
2022/09/02 07:17:16;;;;;;;7.00;5.20;;;;;;;19.95;67.06;98624.34;5131961;27;20046;-93
2022/09/02 07:19:42;;;;;;;11.32;5.28;;;;;;;20.06;67.19;98621.78;5133364;27;20142;-93
2022/09/02 07:22:08;;;;;;;7.88;4.88;;;;;;;20.16;67.74;98616.63;5135022;27;20046;-94
2022/09/02 07:24:36;;;;;;;9.00;4.95;;;;;;;20.21;66.02;98620.75;5140353;27;20072;-96
2022/09/02 07:27:02;;;;;;;6.55;5.15;;;;;;;20.54;65.90;98632.88;5134632;27;20487;-94
2022/09/02 07:29:28;;;;;;;6.65;4.43;;;;;;;20.77;63.38;98628.56;5134438;27;20310;-94
2022/09/02 07:31:54;;;;;;;7.20;4.65;;;;;;;20.77;63.00;98631.28;5134461;27;20114;-92
2022/09/02 07:34:20;;;;;;;9.98;4.80;;;;;;;20.46;63.71;98641.50;5134418;27;20039;-93
2022/09/02 07:36:47;;;;;;;7.07;4.28;;;;;;;20.68;62.26;98627.38;5133965;27;20126;-94
2022/09/02 07:39:15;;;;;;;7.80;4.45;;;;;;;20.93;63.27;98633.78;5134232;27;20031;-93
2022/09/02 07:41:45;;;;;;;7.55;4.68;;;;;;;21.02;62.92;98635.81;5134554;27;20505;-94
2022/09/02 07:44:11;;;;;;;8.07;5.05;;;;;;;20.94;64.69;98635.47;5143058;27;20044;-94
2022/09/02 07:46:37;;;;;;;6.95;5.10;;;;;;;20.96;62.20;98633.53;5135482;27;20036;-94
2022/09/02 07:49:06;;;;;;;6.20;4.80;;;;;;;20.48;63.49;98631.47;5136195;27;20036;-94
2022/09/02 07:51:34;;;;;;;10.40;5.00;;;;;;;20.16;64.67;98622.91;5135610;27;20047;-94
2022/09/02 07:54:00;;;;;;;7.80;4.43;;;;;;;20.33;65.29;98639.78;5140579;27;20031;-94
2022/09/02 07:56:26;;;;;;;10.85;5.00;;;;;;;20.44;65.94;98621.84;5133889;27;20122;-94
2022/09/02 07:58:54;;;;;;;6.95;4.70;;;;;;;20.63;65.28;98626.88;5135626;27;20067;-94
2022/09/02 08:01:21;;;;;;;7.97;4.82;;;;;;;20.60;65.16;98612.69;5134845;27;20588;-93
2022/09/02 08:03:47;;;;;;;9.77;5.07;;;;;;;20.79;66.85;98623.06;5140181;27;20039;-95
2022/09/02 08:06:13;;;;;;;5.55;4.45;;;;;;;20.97;63.47;98635.28;5132084;28;20039;-93
2022/09/02 08:08:39;;;;;;;6.75;4.55;;;;;;;21.17;63.05;98631.13;5136630;27;20059;-94
2022/09/02 08:11:06;;;;;;;7.45;4.50;;;;;;;21.28;61.68;98630.34;5136803;27;20104;-95
2022/09/02 08:13:32;;;;;;;8.05;4.95;;;;;;;21.72;61.82;98623.50;5140369;27;20035;-94
2022/09/02 08:16:01;;;;;;;6.90;4.63;;;;;;;22.13;60.99;98605.94;5134953;27;20130;-95
2022/09/02 08:18:27;;;;;;;8.38;5.50;;;;;;;22.44;57.59;98606.28;5122947;27;20050;-94
2022/09/02 08:20:53;;;;;;;6.05;4.82;;;;;;;22.50;55.98;98627.50;5119853;27;20443;-94
2022/09/02 08:23:19;;;;;;;8.10;4.25;;;;;;;22.17;56.71;98602.03;5117488;28;20092;-93
2022/09/02 08:25:45;;;;;;;8.82;4.63;;;;;;;21.83;56.76;98622.69;5115162;28;20035;-95
2022/09/02 08:28:10;;;;;;;7.07;4.50;;;;;;;21.75;58.28;98588.06;5121267;27;20093;-95
2022/09/02 08:30:36;;;;;;;8.38;4.40;;;;;;;22.02;59.08;98598.66;5122902;27;20070;-93
2022/09/02 08:33:03;;;;;;;7.30;4.20;;;;;;;21.97;57.65;98616.22;5129420;27;20106;-95
2022/09/02 08:35:29;;;;;;;5.35;4.20;;;;;;;21.76;56.83;98602.50;5121473;27;20035;-93
2022/09/02 08:37:56;;;;;;;6.65;4.35;;;;;;;21.80;56.60;98599.44;5120695;27;20139;-94
2022/09/02 08:40:28;;;;;;;7.63;4.45;;;;;;;21.91;56.72;98609.44;5126823;27;20043;-94
2022/09/02 08:42:55;;;;;;;5.43;3.97;;;;;;;22.11;55.77;98607.91;5122613;27;20073;-94
2022/09/02 08:45:27;;;;;;;8.70;4.70;;;;;;;22.24;58.31;98624.97;5123888;27;20044;-95
2022/09/02 08:48:01;;;;;;;7.40;4.35;;;;;;;22.50;57.51;98628.34;5117014;27;20062;-96
2022/09/02 08:50:31;;;;;;;8.55;4.53;;;;;;;22.78;54.59;98615.34;5120384;27;20039;-95
2022/09/02 08:53:03;;;;;;;8.30;4.45;;;;;;;22.71;55.83;98604.13;5119543;28;20054;-96
2022/09/02 08:55:35;;;;;;;6.38;4.20;;;;;;;22.84;54.77;98611.28;5118014;27;20048;-95
2022/09/02 08:58:01;;;;;;;6.93;4.43;;;;;;;23.01;53.96;98585.53;5117471;28;20031;-95
2022/09/02 09:00:32;;;;;;;7.13;4.30;;;;;;;23.06;52.92;98605.00;5118467;28;20047;-95
2022/09/02 09:03:11;;;;;;;6.20;4.78;;;;;;;23.56;54.11;98608.97;5125423;27;20067;-95
2022/09/02 09:05:50;;;;;;;6.10;4.25;;;;;;;23.61;52.94;98603.16;5120597;27;20043;-95
2022/09/02 09:08:27;;;;;;;7.47;4.10;;;;;;;23.77;53.44;98586.50;5115717;28;20039;-95
2022/09/02 09:11:00;;;;;;;11.05;4.22;;;;;;;24.08;51.28;98582.03;5121230;28;20032;-95
2022/09/02 09:14:01;;;;;;;7.13;4.38;;;;;;;24.06;51.17;98602.19;5121276;27;20104;-95
2022/09/02 09:16:37;;;;;;;9.30;4.30;;;;;;;23.48;50.37;98587.03;5118632;28;20040;-96
2022/09/02 09:19:10;;;;;;;7.95;4.38;;;;;;;23.89;50.91;98580.03;5117316;27;20043;-95
2022/09/02 09:21:39;;;;;;;7.70;4.57;;;;;;;24.19;49.78;98586.53;5119758;27;20043;-94
2022/09/02 09:24:09;;;;;;;6.15;4.20;;;;;;;24.47;50.33;98595.03;5127830;27;20035;-95
2022/09/02 09:26:39;;;;;;;5.88;4.10;;;;;;;23.89;50.86;98580.03;5119985;28;20040;-95
2022/09/02 09:29:06;;;;;;;7.28;4.70;;;;;;;23.70;52.07;98596.09;5136335;27;20122;-92
2022/09/02 09:31:34;;;;;;;8.75;4.30;;;;;;;23.83;51.35;98575.09;5126693;27;20417;-94
2022/09/02 09:34:01;;;;;;;;;;;;;;;24.33;50.64;98601.66;5131143;27;20046;-95
2022/09/02 09:36:50;;;;;;;7.63;4.05;;;;;;;24.31;50.94;98585.50;5123738;27;19916;-94
2022/09/02 09:39:18;;;;;;;6.18;4.07;;;;;;;24.32;48.12;98600.78;5123584;27;20126;-94
2022/09/02 09:41:45;;;;;;;6.20;4.05;;;;;;;24.30;50.24;98585.63;5129560;27;20054;-95
2022/09/02 09:44:10;;;;;;;7.65;4.10;;;;;;;24.37;48.37;98571.34;5117842;28;20048;-95
2022/09/02 09:46:36;;;;;;;5.97;4.13;;;;;;;24.58;51.45;98575.94;5125003;27;20399;-94
2022/09/02 09:49:02;;;;;;;5.13;4.03;;;;;;;24.32;48.93;98581.75;5118875;27;20532;-94
2022/09/02 09:51:28;;;;;;;10.52;3.92;;;;;;;24.64;50.53;98569.97;5128841;27;20222;-94
2022/09/02 09:54:14;;;;;;;8.13;3.95;;;;;;;24.57;48.78;98569.66;5119208;28;20036;-95
2022/09/02 09:56:40;;;;;;;6.25;4.00;;;;;;;24.48;47.68;98569.56;5117824;28;20047;-95
2022/09/02 09:59:30;;;;;;;6.40;4.53;;;;;;;24.39;48.20;98577.50;5121175;27;20031;-95
2022/09/02 10:01:56;;;;;;;6.20;4.03;;;;;;;24.41;48.54;98561.06;5122372;27;20045;-93
2022/09/02 10:04:27;;;;;;;6.00;4.45;;;;;;;24.69;48.70;98575.00;5121431;27;20043;-95
2022/09/02 10:06:53;;;;;;;6.30;4.13;;;;;;;24.83;49.38;98577.38;5124991;27;20044;-96
2022/09/02 10:09:33;;;;;;;6.13;4.30;;;;;;;24.82;49.78;98562.03;5121230;28;20093;-94
2022/09/02 10:12:01;;;;;;;5.38;3.75;;;;;;;24.96;46.52;98577.09;5124557;27;20103;-94
2022/09/02 10:14:32;;;;;;;8.70;4.17;;;;;;;24.83;48.42;98569.22;5119674;28;20050;-95
2022/09/02 10:17:08;;;;;;;8.68;4.10;;;;;;;24.93;47.24;98569.22;5121247;27;20035;-95
2022/09/02 10:19:42;;;;;;;5.40;3.75;;;;;;;25.03;46.67;98564.69;5118511;27;20400;-94
2022/09/02 10:22:31;;;;;;;6.45;4.40;;;;;;;24.73;46.25;98581.91;5120636;27;20035;-95
2022/09/02 10:25:11;;;;;;;6.70;3.92;;;;;;;24.75;48.95;98580.75;5117784;28;20047;-96
2022/09/02 10:27:47;;;;;;;8.23;4.53;;;;;;;24.77;47.13;98565.16;5117782;28;20067;-94
2022/09/02 10:30:18;;;;;;;4.88;3.75;;;;;;;24.62;47.18;98552.94;5119050;28;20058;-95
2022/09/02 10:33:23;;;;;;;6.93;3.95;;;;;;;24.85;48.35;98564.47;5120825;28;20047;-93
2022/09/02 10:35:55;;;;;;;5.55;3.90;;;;;;;25.08;49.79;98540.66;5102418;28;20180;-94
2022/09/02 10:38:36;;;;;;;6.32;4.10;;;;;;;25.31;48.04;98557.66;5127183;27;20497;-94
2022/09/02 10:41:17;;;;;;;8.35;4.00;;;;;;;25.37;47.35;98557.09;5115843;27;20043;-94
2022/09/02 10:44:19;;;;;;;7.53;4.22;;;;;;;25.46;47.27;98555.38;5121556;27;20032;-95
2022/09/02 10:46:57;;;;;;;6.35;3.97;;;;;;;25.30;45.44;98550.47;5113205;28;20519;-94
2022/09/02 10:49:34;;;;;;;7.40;3.90;;;;;;;24.97;46.25;98543.47;5115814;28;20138;-96
2022/09/02 10:52:09;;;;;;;7.60;4.30;;;;;;;25.01;47.67;98528.59;5123140;27;20051;-94
2022/09/02 10:54:44;;;;;;;6.75;4.00;;;;;;;25.05;46.81;98530.06;5117183;28;20046;-93
2022/09/02 10:57:18;;;;;;;5.28;3.92;;;;;;;25.12;46.01;98523.03;5116642;28;20123;-95
2022/09/02 10:59:51;;;;;;;6.32;3.85;;;;;;;25.20;45.74;98538.72;5122811;27;20109;-94
2022/09/02 11:02:22;;;;;;;8.60;4.10;;;;;;;24.94;45.89;98522.88;5119696;28;20036;-93
2022/09/02 11:04:55;;;;;;;5.88;4.18;;;;;;;24.98;45.44;98515.25;5117474;28;20485;-95
2022/09/02 11:07:26;;;;;;;5.70;4.10;;;;;;;24.86;45.98;98505.50;5117955;28;20396;-95
2022/09/02 11:09:55;;;;;;;7.32;4.40;;;;;;;25.07;48.08;98514.44;5124405;28;20040;-93
2022/09/02 11:12:28;;;;;;;7.75;4.40;;;;;;;25.26;47.14;98520.94;5113327;28;20036;-92
2022/09/02 11:15:03;;;;;;;7.75;3.83;;;;;;;25.39;45.75;98516.97;5115261;28;20071;-94
2022/09/02 11:17:37;;;;;;;6.90;4.07;;;;;;;25.37;47.32;98518.97;5113593;28;20040;-95
2022/09/02 11:20:11;;;;;;;5.07;4.13;;;;;;;25.52;45.31;98524.84;5121512;28;20126;-94
2022/09/02 11:22:44;;;;;;;6.53;4.10;;;;;;;25.55;44.76;98521.00;5120808;28;20043;-94
2022/09/02 11:25:15;;;;;;;5.95;4.13;;;;;;;25.65;45.87;98523.72;5115593;28;20032;-94
2022/09/02 11:27:47;;;;;;;5.10;3.90;;;;;;;25.77;44.58;98511.69;5115623;28;20066;-95
2022/09/02 11:30:17;;;;;;;6.03;3.88;;;;;;;25.88;44.85;98522.44;5115913;28;20054;-94
2022/09/02 11:32:49;;;;;;;5.70;4.13;;;;;;;25.99;45.16;98524.16;5115787;28;20070;-95
2022/09/02 11:35:19;;;;;;;6.45;4.00;;;;;;;25.69;44.53;98520.56;5126234;28;20155;-91
2022/09/02 11:37:50;;;;;;;6.78;4.90;;;;;;;25.21;45.12;98533.13;5116934;28;20036;-92
2022/09/02 11:40:22;;;;;;;7.78;4.10;;;;;;;25.39;46.60;98510.66;5112971;28;20048;-94
2022/09/02 11:43:17;;;;;;;5.50;4.10;;;;;;;25.55;44.42;98530.03;5116167;28;20046;-95
2022/09/02 11:46:01;;;;;;;7.43;4.00;;;;;;;25.58;43.90;98513.38;5114946;28;20036;-93